createdAt,value
2023-05-22T00:01:32.459Z,98492.53
2023-05-22T00:03:59.969Z,98490.31
2023-05-22T00:06:27.692Z,98491.34
2023-05-22T00:08:54.810Z,98496.31
2023-05-22T00:11:23.312Z,98488.53
2023-05-22T00:13:50.334Z,98483.31
2023-05-22T00:16:17.658Z,98483.78
2023-05-22T00:18:44.998Z,98483.00
2023-05-22T00:21:12.111Z,98487.16
2023-05-22T00:23:39.145Z,98481.72
2023-05-22T00:26:06.250Z,98498.06
2023-05-22T00:28:34.627Z,98495.44
2023-05-22T00:31:01.682Z,98495.44
2023-05-22T00:33:28.711Z,98491.81
2023-05-22T00:35:55.811Z,98492.59
2023-05-22T00:38:32.238Z,98490.25
2023-05-22T00:40:59.715Z,98481.94
2023-05-22T00:43:27.135Z,98490.75
2023-05-22T00:45:55.860Z,98491.75
2023-05-22T00:48:23.050Z,98496.31
2023-05-22T00:50:50.528Z,98489.25
2023-05-22T00:53:20.590Z,98500.31
2023-05-22T00:55:48.113Z,98498.41
2023-05-22T00:58:17.657Z,98496.06
2023-05-22T01:00:46.629Z,98492.81
2023-05-22T01:03:15.226Z,98492.25
2023-05-22T01:05:43.317Z,98493.84
2023-05-22T01:08:11.193Z,98492.09
2023-05-22T01:10:40.079Z,98493.97
2023-05-22T01:13:14.848Z,98494.25
2023-05-22T01:15:50.093Z,98487.31
2023-05-22T01:18:26.332Z,98485.25
2023-05-22T01:21:04.186Z,98483.19
2023-05-22T01:24:00.820Z,98490.72
2023-05-22T01:27:14.789Z,98484.53
2023-05-22T01:29:46.538Z,98485.25
2023-05-22T01:32:17.654Z,98481.63
2023-05-22T01:34:46.723Z,98479.03
2023-05-22T01:37:15.065Z,98481.34
2023-05-22T01:39:43.916Z,98473.28
2023-05-22T01:42:11.235Z,98483.13
2023-05-22T01:44:38.316Z,98469.38
2023-05-22T01:47:05.938Z,98480.47
2023-05-22T01:49:35.850Z,98479.66
2023-05-22T01:52:10.087Z,98484.56
2023-05-22T01:54:42.681Z,98478.06
2023-05-22T01:57:16.603Z,98483.50
2023-05-22T01:59:49.693Z,98485.00
2023-05-22T02:02:19.206Z,98480.06
2023-05-22T02:04:54.367Z,98477.16
2023-05-22T02:07:21.463Z,98484.94
2023-05-22T02:09:50.767Z,98478.13
2023-05-22T02:12:18.330Z,98486.09
2023-05-22T02:14:46.375Z,98471.81
2023-05-22T02:17:13.478Z,98470.25
2023-05-22T02:19:40.597Z,98472.06
2023-05-22T02:22:11.735Z,98482.66
2023-05-22T02:24:38.803Z,98481.63
2023-05-22T02:27:06.291Z,98487.84
2023-05-22T02:29:33.591Z,98491.22
2023-05-22T02:32:00.943Z,98489.88
2023-05-22T02:34:28.396Z,98491.69
2023-05-22T02:36:56.364Z,98491.94
2023-05-22T02:39:24.865Z,98479.97
2023-05-22T02:41:52.032Z,98484.06
2023-05-22T02:44:19.026Z,98488.47
2023-05-22T02:46:47.406Z,98480.38
2023-05-22T02:49:14.507Z,98481.66
2023-05-22T02:51:41.616Z,98481.66
2023-05-22T02:54:08.639Z,98487.06
2023-05-22T02:56:37.049Z,98485.75
2023-05-22T02:59:04.021Z,98496.34
2023-05-22T03:01:31.002Z,98491.41
2023-05-22T03:03:58.232Z,98498.38
2023-05-22T03:06:25.522Z,98490.84
2023-05-22T03:08:53.762Z,98503.31
2023-05-22T03:11:21.506Z,98496.81
2023-05-22T03:13:49.882Z,98482.84
2023-05-22T03:16:17.137Z,98489.59
2023-05-22T03:18:46.565Z,98488.34
2023-05-22T03:21:13.646Z,98486.50
2023-05-22T03:23:40.681Z,98482.91
2023-05-22T03:26:07.674Z,98488.63
2023-05-22T03:28:37.581Z,98501.09
2023-05-22T03:31:09.581Z,98489.72
2023-05-22T03:33:51.129Z,98500.13
2023-05-22T03:36:18.692Z,98502.81
2023-05-22T03:38:45.732Z,98508.06
2023-05-22T03:41:12.726Z,98509.16
2023-05-22T03:43:42.120Z,98502.69
2023-05-22T03:46:12.950Z,98502.22
2023-05-22T03:48:40.022Z,98518.06
2023-05-22T03:51:07.032Z,98513.63
2023-05-22T03:53:34.028Z,98508.06
2023-05-22T03:56:01.139Z,98510.19
2023-05-22T03:58:28.228Z,98503.31
2023-05-22T04:00:58.611Z,98507.28
2023-05-22T04:03:28.054Z,98506.56
2023-05-22T04:05:56.858Z,98499.78
2023-05-22T04:08:24.096Z,98504.72
2023-05-22T04:10:51.591Z,98505.28
2023-05-22T04:13:18.987Z,98508.72
2023-05-22T04:15:47.059Z,98509.91
2023-05-22T04:18:14.244Z,98504.59
2023-05-22T04:20:42.947Z,98507.44
2023-05-22T04:23:10.055Z,98515.28
2023-05-22T04:25:38.003Z,98500.63
2023-05-22T04:28:05.061Z,98503.84
2023-05-22T04:30:37.637Z,98500.88
2023-05-22T04:33:05.666Z,98504.63
2023-05-22T04:35:32.932Z,98502.91
2023-05-22T04:38:02.334Z,98499.91
2023-05-22T04:40:33.775Z,98508.56
2023-05-22T04:43:01.628Z,98505.53
2023-05-22T04:45:30.633Z,98506.38
2023-05-22T04:48:02.750Z,98504.38
2023-05-22T04:50:34.388Z,98507.03
2023-05-22T04:53:04.502Z,98514.06
2023-05-22T04:55:34.121Z,98508.38
2023-05-22T04:58:01.624Z,98508.91
2023-05-22T05:00:29.623Z,98502.69
2023-05-22T05:02:57.980Z,98503.78
2023-05-22T05:05:25.396Z,98501.69
2023-05-22T05:07:53.853Z,98505.88
2023-05-22T05:10:22.287Z,98500.72
2023-05-22T05:12:49.818Z,98500.97
2023-05-22T05:15:17.733Z,98493.69
2023-05-22T05:17:44.786Z,98497.88
2023-05-22T05:20:14.609Z,98491.38
2023-05-22T05:22:43.980Z,98502.84
2023-05-22T05:25:11.941Z,98511.41
2023-05-22T05:27:41.524Z,98505.19
2023-05-22T05:30:10.788Z,98505.41
2023-05-22T05:32:58.601Z,98515.84
2023-05-22T05:35:36.117Z,98505.94
2023-05-22T05:38:07.979Z,98513.22
2023-05-22T05:40:36.377Z,98505.16
2023-05-22T05:43:08.993Z,98512.19
2023-05-22T05:45:36.276Z,98512.69
2023-05-22T05:48:03.439Z,98513.72
2023-05-22T05:50:31.319Z,98511.13
2023-05-22T05:52:58.597Z,98505.09
2023-05-22T05:55:26.003Z,98503.75
2023-05-22T05:57:54.399Z,98509.94
2023-05-22T06:00:30.213Z,98518.44
2023-05-22T06:02:59.725Z,98513.44
2023-05-22T06:05:47.792Z,98522.28
2023-05-22T06:08:24.077Z,98525.56
2023-05-22T06:10:51.637Z,98519.88
2023-05-22T06:13:37.206Z,98516.34
2023-05-22T06:16:07.027Z,98517.66
2023-05-22T06:18:35.070Z,98528.78
2023-05-22T06:21:02.175Z,98523.59
2023-05-22T06:23:29.197Z,98515.97
2023-05-22T06:25:57.412Z,98515.69
2023-05-22T06:28:25.686Z,98522.34
2023-05-22T06:30:53.089Z,98509.50
2023-05-22T06:33:24.267Z,98507.16
2023-05-22T06:35:51.356Z,98507.00
2023-05-22T06:38:19.487Z,98507.44
2023-05-22T06:40:46.503Z,98495.22
2023-05-22T06:43:18.625Z,98499.88
2023-05-22T06:45:58.715Z,98498.06
2023-05-22T06:48:39.478Z,98503.78
2023-05-22T06:51:12.893Z,98498.94
2023-05-22T06:53:41.528Z,98497.53
2023-05-22T06:56:16.543Z,98499.16
2023-05-22T06:58:55.395Z,98498.69
2023-05-22T07:01:29.390Z,98494.06
2023-05-22T07:04:09.073Z,98495.78
2023-05-22T07:06:41.871Z,98492.22
2023-05-22T07:09:11.302Z,98484.16
2023-05-22T07:11:38.615Z,98482.31
2023-05-22T07:14:05.916Z,98493.06
2023-05-22T07:16:33.036Z,98493.38
2023-05-22T07:19:03.218Z,98487.28
2023-05-22T07:21:32.597Z,98494.81
2023-05-22T07:23:59.657Z,98489.91
2023-05-22T07:26:27.855Z,98493.69
2023-05-22T07:29:03.022Z,98490.56
2023-05-22T07:31:34.454Z,98497.09
2023-05-22T07:34:02.853Z,98489.84
2023-05-22T07:36:32.221Z,98483.03
2023-05-22T07:38:59.209Z,98484.75
2023-05-22T07:41:27.280Z,98484.44
2023-05-22T07:43:54.416Z,98481.50
2023-05-22T07:46:26.958Z,98482.91
2023-05-22T07:49:04.882Z,98486.16
2023-05-22T07:51:33.676Z,98487.97
2023-05-22T07:54:00.832Z,98485.47
2023-05-22T07:56:28.247Z,98482.50
2023-05-22T07:58:56.368Z,98490.94
2023-05-22T08:01:24.191Z,98487.16
2023-05-22T08:03:51.525Z,98483.25
2023-05-22T08:06:18.619Z,98482.72
2023-05-22T08:08:46.997Z,98476.44
2023-05-22T08:11:14.014Z,98473.41
2023-05-22T08:13:41.244Z,98482.78
2023-05-22T08:16:08.461Z,98480.75
2023-05-22T08:18:35.569Z,98479.06
2023-05-22T08:21:02.957Z,98488.22
2023-05-22T08:23:30.125Z,98487.78
2023-05-22T08:25:58.561Z,98490.28
2023-05-22T08:28:25.725Z,98492.84
2023-05-22T08:30:52.728Z,98485.66
2023-05-22T08:33:19.824Z,98478.84
2023-05-22T08:35:46.891Z,98488.66
2023-05-22T08:38:13.908Z,98475.41
2023-05-22T08:40:43.270Z,98471.78
2023-05-22T08:43:13.773Z,98479.25
2023-05-22T08:45:42.509Z,98472.91
2023-05-22T08:48:13.010Z,98471.53
2023-05-22T08:50:46.187Z,98475.97
2023-05-22T08:53:15.725Z,98475.78
2023-05-22T08:55:42.861Z,98473.16
2023-05-22T08:58:11.661Z,98475.41
2023-05-22T09:00:41.339Z,98464.91
2023-05-22T09:03:10.251Z,98456.97
2023-05-22T09:05:37.594Z,98452.44
2023-05-22T09:08:16.054Z,98457.13
2023-05-22T09:10:47.730Z,98445.19
2023-05-22T09:13:25.473Z,98450.59
2023-05-22T09:15:58.362Z,98446.56
2023-05-22T09:18:27.853Z,98452.44
2023-05-22T09:20:57.725Z,98445.47
2023-05-22T09:23:27.562Z,98437.81
2023-05-22T09:25:56.246Z,98437.19
2023-05-22T09:28:23.531Z,98435.16
2023-05-22T09:30:51.401Z,98437.31
2023-05-22T09:33:20.239Z,98442.53
2023-05-22T09:35:48.489Z,98443.47
2023-05-22T09:38:15.696Z,98444.00
2023-05-22T09:40:42.760Z,98443.94
2023-05-22T09:43:10.232Z,98435.09
2023-05-22T09:45:38.261Z,98434.84
2023-05-22T09:48:06.518Z,98433.19
2023-05-22T09:50:35.694Z,98435.94
2023-05-22T09:53:03.691Z,98436.59
2023-05-22T09:55:32.213Z,98445.13
2023-05-22T09:58:04.237Z,98443.19
2023-05-22T10:00:34.588Z,98430.72
2023-05-22T10:03:08.041Z,98432.28
2023-05-22T10:05:39.815Z,98434.06
2023-05-22T10:08:11.784Z,98432.78
2023-05-22T10:10:41.448Z,98425.78
2023-05-22T10:13:09.258Z,98426.13
2023-05-22T10:15:36.655Z,98426.47
2023-05-22T10:18:05.199Z,98426.38
2023-05-22T10:20:32.782Z,98417.06
2023-05-22T10:23:03.270Z,98407.34
2023-05-22T10:25:30.718Z,98402.19
2023-05-22T10:27:59.520Z,98397.25
2023-05-22T10:30:34.063Z,98396.44
2023-05-22T10:33:22.655Z,98388.28
2023-05-22T10:35:53.377Z,98391.13
2023-05-22T10:38:40.131Z,98394.81
2023-05-22T10:41:08.094Z,98390.16
2023-05-22T10:43:39.167Z,98385.56
2023-05-22T10:46:07.618Z,98377.44
2023-05-22T10:48:38.925Z,98372.69
2023-05-22T10:51:07.638Z,98371.31
2023-05-22T10:53:37.047Z,98369.47
2023-05-22T10:56:12.001Z,98367.50
2023-05-22T10:58:39.785Z,98365.72
2023-05-22T11:01:15.652Z,98360.31
2023-05-22T11:03:57.267Z,98359.97
2023-05-22T11:06:37.650Z,98353.19
2023-05-22T11:09:29.064Z,98345.75
2023-05-22T11:12:22.931Z,98346.69
2023-05-22T11:14:55.162Z,98344.69
2023-05-22T11:17:25.157Z,98347.53
2023-05-22T11:20:05.308Z,98349.22
2023-05-22T11:22:35.037Z,98343.00
2023-05-22T11:25:08.455Z,98334.84
2023-05-22T11:27:36.716Z,98328.53
2023-05-22T11:30:04.638Z,98330.66
2023-05-22T11:32:32.008Z,98331.75
2023-05-22T11:34:59.323Z,98350.72
2023-05-22T11:37:26.830Z,98348.75
2023-05-22T11:40:06.986Z,98349.31
2023-05-22T11:42:36.118Z,98336.06
2023-05-22T11:45:03.946Z,98337.59
2023-05-22T11:47:31.547Z,98328.16
2023-05-22T11:49:59.988Z,98335.13
2023-05-22T11:52:34.695Z,98330.91
2023-05-22T11:55:02.512Z,98329.22
2023-05-22T11:57:29.940Z,98326.19
2023-05-22T11:59:58.796Z,98322.19
2023-05-22T12:02:26.350Z,98325.38
2023-05-22T12:04:57.444Z,98326.91
2023-05-22T12:07:26.063Z,98316.09
2023-05-22T12:09:57.420Z,98317.50
2023-05-22T12:12:24.790Z,98316.00
2023-05-22T12:14:52.067Z,98304.16
2023-05-22T12:17:20.577Z,98325.34
2023-05-22T12:19:48.190Z,98315.03
2023-05-22T12:22:15.349Z,98325.84
2023-05-22T12:24:46.403Z,98306.78
2023-05-22T12:27:14.473Z,98312.81
2023-05-22T12:29:42.868Z,98308.13
2023-05-22T12:32:12.116Z,98316.56
2023-05-22T12:34:47.333Z,98302.53
2023-05-22T12:39:56.715Z,98300.25
2023-05-22T12:42:25.090Z,98300.59
2023-05-22T12:44:54.829Z,98296.72
2023-05-22T12:47:23.666Z,98292.78
2023-05-22T12:49:52.692Z,98284.84
2023-05-22T12:52:20.094Z,98288.75
2023-05-22T12:54:47.403Z,98277.66
2023-05-22T12:57:17.143Z,98263.84
2023-05-22T12:59:44.607Z,98268.94
2023-05-22T13:02:12.027Z,98268.47
2023-05-22T13:04:39.320Z,98263.00
2023-05-22T13:07:08.157Z,98250.34
2023-05-22T13:09:35.891Z,98251.03
2023-05-22T13:12:04.901Z,98250.94
2023-05-22T13:14:32.899Z,98239.31
2023-05-22T13:17:01.055Z,98239.81
2023-05-22T13:19:28.725Z,98238.28
2023-05-22T13:21:56.145Z,98241.66
2023-05-22T13:24:24.629Z,98239.41
2023-05-22T13:26:52.387Z,98245.84
2023-05-22T13:29:20.245Z,98242.38
2023-05-22T13:31:48.750Z,98239.66
2023-05-22T13:34:16.257Z,98251.97
2023-05-22T13:36:43.859Z,98249.53
2023-05-22T13:39:11.245Z,98255.41
2023-05-22T13:41:40.119Z,98254.78
2023-05-22T13:44:07.420Z,98246.38
2023-05-22T13:46:34.594Z,98247.06
2023-05-22T13:49:02.094Z,98249.88
2023-05-22T13:51:29.750Z,98245.59
2023-05-22T13:53:56.806Z,98240.78
2023-05-22T13:56:24.038Z,98252.09
2023-05-22T13:58:52.486Z,98255.38
2023-05-22T14:01:19.864Z,98252.72
2023-05-22T14:03:46.959Z,98257.09
2023-05-22T14:06:14.545Z,98245.34
2023-05-22T14:08:41.982Z,98249.00
2023-05-22T14:11:09.042Z,98246.97
2023-05-22T14:13:36.216Z,98254.13
2023-05-22T14:16:05.081Z,98243.91
2023-05-22T14:18:32.490Z,98251.97
2023-05-22T14:20:59.635Z,98254.66
2023-05-22T14:23:26.702Z,98249.25
2023-05-22T14:25:53.797Z,98258.09
2023-05-22T14:28:20.956Z,98266.72
2023-05-22T14:30:48.256Z,98256.44
2023-05-22T14:33:16.683Z,98261.94
2023-05-22T14:38:11.880Z,98248.47
2023-05-22T14:40:39.045Z,98256.94
2023-05-22T14:43:06.160Z,98252.97
2023-05-22T14:45:33.177Z,98251.41
2023-05-22T14:48:00.474Z,98246.91
2023-05-22T14:50:29.169Z,98249.44
2023-05-22T14:52:56.170Z,98248.03
2023-05-22T14:55:25.352Z,98242.44
2023-05-22T14:57:52.313Z,98244.25
2023-05-22T15:00:20.039Z,98243.13
2023-05-22T15:02:47.204Z,98243.38
2023-05-22T15:05:14.302Z,98250.00
2023-05-22T15:07:45.373Z,98245.34
2023-05-22T15:10:13.881Z,98253.63
2023-05-22T15:12:40.932Z,98247.13
2023-05-22T15:15:09.227Z,98243.31
2023-05-22T15:17:36.366Z,98242.69
2023-05-22T15:20:04.919Z,98246.56
2023-05-22T15:22:31.926Z,98247.56
2023-05-22T15:25:08.774Z,98243.34
2023-05-22T15:27:36.211Z,98251.88
2023-05-22T15:30:04.569Z,98243.13
2023-05-22T15:32:32.130Z,98246.78
2023-05-22T15:34:59.176Z,98246.56
2023-05-22T15:37:27.664Z,98262.50
2023-05-22T15:39:55.820Z,98247.44
2023-05-22T15:42:24.634Z,98258.22
2023-05-22T15:44:51.730Z,98255.69
2023-05-22T15:47:18.683Z,98253.84
2023-05-22T15:49:45.926Z,98250.84
2023-05-22T15:52:12.912Z,98257.84
2023-05-22T15:54:39.946Z,98257.03
2023-05-22T15:57:07.115Z,98259.78
2023-05-22T15:59:35.563Z,98259.66
2023-05-22T16:02:02.589Z,98267.44
2023-05-22T16:04:29.609Z,98268.72
2023-05-22T16:06:56.612Z,98270.28
2023-05-22T16:09:23.797Z,98275.50
2023-05-22T16:11:50.826Z,98274.13
2023-05-22T16:14:17.961Z,98285.25
2023-05-22T16:16:46.436Z,98283.28
2023-05-22T16:19:13.589Z,98292.38
2023-05-22T16:21:40.694Z,98291.69
2023-05-22T16:24:07.874Z,98299.34
2023-05-22T16:26:37.618Z,98295.44
2023-05-22T16:29:07.144Z,98299.28
2023-05-22T16:31:35.589Z,98299.25
2023-05-22T16:34:05.100Z,98296.91
2023-05-22T16:36:32.622Z,98297.41
2023-05-22T16:38:59.760Z,98311.72
2023-05-22T16:41:26.914Z,98310.22
2023-05-22T16:43:54.016Z,98319.97
2023-05-22T16:46:21.303Z,98318.19
2023-05-22T16:48:48.549Z,98324.25
2023-05-22T16:51:17.304Z,98325.66
2023-05-22T16:53:44.527Z,98332.78
2023-05-22T16:56:11.585Z,98340.09
2023-05-22T16:58:38.670Z,98365.72
2023-05-22T17:01:06.474Z,98363.19
2023-05-22T17:03:33.729Z,98376.25
2023-05-22T17:06:03.103Z,98374.19
2023-05-22T17:08:32.202Z,98374.28
2023-05-22T17:10:59.233Z,98363.50
2023-05-22T17:13:26.273Z,98362.16
2023-05-22T17:15:53.538Z,98370.38
2023-05-22T17:18:21.131Z,98365.50
2023-05-22T17:20:49.394Z,98364.31
2023-05-22T17:23:16.923Z,98370.13
2023-05-22T17:25:48.010Z,98368.88
2023-05-22T17:28:15.644Z,98363.72
2023-05-22T17:30:44.150Z,98367.63
2023-05-22T17:33:12.327Z,98378.53
2023-05-22T17:35:39.711Z,98388.75
2023-05-22T17:38:08.506Z,98384.28
2023-05-22T17:40:44.046Z,98392.09
2023-05-22T17:43:14.033Z,98392.91
2023-05-22T17:45:41.843Z,98398.63
2023-05-22T17:48:09.350Z,98405.91
2023-05-22T17:50:36.554Z,98401.19
2023-05-22T17:53:03.639Z,98409.50
2023-05-22T17:55:30.855Z,98414.72
2023-05-22T17:57:58.646Z,98408.22
2023-05-22T18:00:27.141Z,98402.47
2023-05-22T18:02:54.285Z,98404.56
2023-05-22T18:05:21.365Z,98404.06
2023-05-22T18:07:48.590Z,98405.38
2023-05-22T18:10:15.952Z,98408.28
2023-05-22T18:12:43.037Z,98410.84
2023-05-22T18:15:12.205Z,98409.53
2023-05-22T18:17:41.495Z,98409.53
2023-05-22T18:20:11.960Z,98409.31
2023-05-22T18:22:39.947Z,98410.34
2023-05-22T18:25:08.202Z,98408.53
2023-05-22T18:27:35.563Z,98411.13
2023-05-22T18:30:02.835Z,98415.31
2023-05-22T18:32:30.262Z,98425.19
2023-05-22T18:34:59.945Z,98420.50
2023-05-22T18:37:26.988Z,98421.81
2023-05-22T18:39:54.015Z,98423.66
2023-05-22T18:42:21.233Z,98435.13
2023-05-22T18:44:49.161Z,98423.19
2023-05-22T18:47:16.916Z,98443.25
2023-05-22T18:49:43.941Z,98444.03
2023-05-22T18:52:12.455Z,98440.91
2023-05-22T18:54:39.511Z,98447.69
2023-05-22T18:57:06.651Z,98456.25
2023-05-22T18:59:33.683Z,98454.97
2023-05-22T19:02:00.741Z,98448.44
2023-05-22T19:04:27.808Z,98445.59
2023-05-22T19:06:54.811Z,98456.50
2023-05-22T19:09:23.279Z,98453.38
2023-05-22T19:11:50.421Z,98450.75
2023-05-22T19:14:17.609Z,98465.31
2023-05-22T19:16:44.721Z,98460.88
2023-05-22T19:19:11.872Z,98467.38
2023-05-22T19:21:39.194Z,98466.06
2023-05-22T19:24:07.105Z,98469.94
2023-05-22T19:26:35.493Z,98469.94
2023-05-22T19:29:02.494Z,98474.59
2023-05-22T19:31:29.808Z,98485.25
2023-05-22T19:33:56.966Z,98479.53
2023-05-22T19:36:24.026Z,98480.31
2023-05-22T19:38:53.227Z,98483.97
2023-05-22T19:41:21.521Z,98478.97
2023-05-22T19:43:51.300Z,98482.88
2023-05-22T19:46:18.385Z,98477.41
2023-05-22T19:48:45.410Z,98476.34
2023-05-22T19:51:12.474Z,98474.00
2023-05-22T19:53:39.551Z,98478.66
2023-05-22T19:56:06.682Z,98480.75
2023-05-22T19:58:33.766Z,98479.44
2023-05-22T20:01:02.304Z,98480.44
2023-05-22T20:03:29.378Z,98480.16
2023-05-22T20:05:56.593Z,98492.63
2023-05-22T20:08:25.445Z,98485.09
2023-05-22T20:10:52.845Z,98482.75
2023-05-22T20:13:19.870Z,98484.78
2023-05-22T20:15:53.311Z,98480.63
2023-05-22T20:18:22.184Z,98485.25
2023-05-22T20:20:49.715Z,98478.75
2023-05-22T20:23:16.762Z,98476.38
2023-05-22T20:25:43.895Z,98472.41
2023-05-22T20:28:11.156Z,98474.25
2023-05-22T20:30:38.184Z,98470.31
2023-05-22T20:33:06.367Z,98479.41
2023-05-22T20:35:34.975Z,98471.13
2023-05-22T20:38:03.353Z,98470.88
2023-05-22T20:40:32.284Z,98466.47
2023-05-22T20:43:02.465Z,98477.66
2023-05-22T20:45:30.236Z,98480.75
2023-05-22T20:47:57.450Z,98476.91
2023-05-22T20:50:24.600Z,98468.56
2023-05-22T20:52:53.048Z,98468.53
2023-05-22T20:55:20.157Z,98469.56
2023-05-22T20:57:47.153Z,98478.34
2023-05-22T21:00:14.780Z,98470.06
2023-05-22T21:02:41.924Z,98469.50
2023-05-22T21:05:09.687Z,98474.38
2023-05-22T21:07:37.083Z,98467.09
2023-05-22T21:10:06.495Z,98466.03
2023-05-22T21:12:33.535Z,98470.97
2023-05-22T21:15:00.651Z,98470.22
2023-05-22T21:17:27.796Z,98472.81
2023-05-22T21:19:54.892Z,98481.59
2023-05-22T21:22:21.943Z,98472.25
2023-05-22T21:24:49.118Z,98471.41
2023-05-22T21:27:17.478Z,98468.28
2023-05-22T21:29:44.487Z,98468.78
2023-05-22T21:32:11.465Z,98469.34
2023-05-22T21:34:38.462Z,98479.44
2023-05-22T21:37:05.635Z,98478.09
2023-05-22T21:39:32.664Z,98469.69
2023-05-22T21:41:59.907Z,98466.75
2023-05-22T21:44:28.276Z,98462.34
2023-05-22T21:46:56.084Z,98467.06
2023-05-22T21:49:23.137Z,98467.59
2023-05-22T21:51:50.120Z,98460.84
2023-05-22T21:54:17.143Z,98457.75
2023-05-22T21:56:44.133Z,98457.16
2023-05-22T21:59:11.523Z,98456.84
2023-05-22T22:01:40.075Z,98458.13
2023-05-22T22:04:07.234Z,98456.59
2023-05-22T22:06:34.279Z,98452.69
2023-05-22T22:09:03.367Z,98453.97
2023-05-22T22:11:30.457Z,98459.63
2023-05-22T22:13:57.492Z,98460.63
2023-05-22T22:16:24.655Z,98458.75
2023-05-22T22:18:53.124Z,98454.06
2023-05-22T22:21:20.610Z,98464.56
2023-05-22T22:23:47.627Z,98463.34
2023-05-22T22:26:14.653Z,98465.84
2023-05-22T22:28:41.711Z,98462.69
2023-05-22T22:31:08.685Z,98460.41
2023-05-22T22:33:35.677Z,98458.09
2023-05-22T22:36:04.392Z,98445.91
2023-05-22T22:38:32.965Z,98440.19
2023-05-22T22:41:00.512Z,98443.00
2023-05-22T22:43:27.547Z,98440.91
2023-05-22T22:45:55.845Z,98441.34
2023-05-22T22:48:23.045Z,98443.84
2023-05-22T22:50:50.178Z,98444.66
2023-05-22T22:53:18.594Z,98438.44
2023-05-22T22:55:48.716Z,98436.63
2023-05-22T22:58:18.742Z,98432.25
2023-05-22T23:00:45.746Z,98426.72
2023-05-22T23:03:12.879Z,98425.94
2023-05-22T23:05:40.404Z,98425.53
2023-05-22T23:08:07.709Z,98430.44
2023-05-22T23:10:36.217Z,98424.69
2023-05-22T23:13:03.300Z,98431.66
2023-05-22T23:15:30.586Z,98423.16
2023-05-22T23:17:57.624Z,98422.91
2023-05-22T23:20:24.621Z,98427.22
2023-05-22T23:22:51.589Z,98424.34
2023-05-22T23:25:18.665Z,98420.72
2023-05-22T23:27:47.147Z,98425.38
2023-05-22T23:30:14.310Z,98419.16
2023-05-22T23:32:41.379Z,98426.69
2023-05-22T23:35:09.721Z,98426.44
2023-05-22T23:37:36.980Z,98429.50
2023-05-22T23:40:06.041Z,98421.19
2023-05-22T23:42:33.159Z,98427.97
2023-05-22T23:45:01.814Z,98421.19
2023-05-22T23:47:28.857Z,98418.84
2023-05-22T23:49:56.738Z,98420.13
2023-05-22T23:52:23.737Z,98418.00
2023-05-22T23:54:50.810Z,98418.78
2023-05-22T23:57:17.855Z,98428.59
2023-05-22T23:59:44.947Z,98433.25
